Time;durP1;ratioP1;P1;durP2;ratioP2;P2;SDS_P1;SDS_P2;PMS_P1;PMS_P2;Temp;Humidity;BMP_temperature;BMP_pressure;BME280_temperature;BME280_humidity;BME280_pressure;Samples;Min_cycle;Max_cycle;Signal;HPM_P1;HPM_P2
2023/03/23 00:00:22;;;;;;;;;;;;;;;18.63;41.62;100608.63;5046397;28;19924;-83
2023/03/23 00:02:48;;;;;;;;;;;;;;;18.57;41.79;100597.06;5044562;28;19955;-82
2023/03/23 00:05:14;;;;;;;;;;;;;;;18.53;41.75;100608.84;5044465;28;19925;-83
2023/03/23 00:07:45;;;;;;;;;;;;;;;18.50;41.78;100601.31;5041582;28;19992;-82
2023/03/23 00:10:10;;;;;;;;;;;;;;;18.47;41.88;100591.06;5042893;28;19917;-83
2023/03/23 00:12:35;;;;;;;;;;;;;;;18.40;42.06;100597.69;5042446;28;19928;-82
2023/03/23 00:15:05;;;;;;;;;;;;;;;18.37;42.15;100592.09;5041014;28;19921;-83
2023/03/23 00:17:32;;;;;;;;;;;;;;;18.33;42.01;100586.47;5042476;28;19921;-82
2023/03/23 00:19:58;;;;;;;;;;;;;;;18.27;42.17;100587.66;5042640;28;20070;-82
2023/03/23 00:22:24;;;;;;;;;;;;;;;18.22;42.11;100586.97;5043847;28;19944;-83
2023/03/23 00:24:50;;;;;;;;;;;;;;;18.17;42.28;100582.47;5041074;28;19921;-82
2023/03/23 00:27:16;;;;;;;;;;;;;;;18.10;42.45;100572.00;5043992;28;19931;-82
2023/03/23 00:29:42;;;;;;;;;;;;;;;18.07;42.18;100577.25;5025211;28;19917;-82
2023/03/23 00:32:12;;;;;;;;;;;;;;;18.00;42.49;100580.38;5045178;28;19986;-82
2023/03/23 00:34:40;;;;;;;;;;;;;;;17.97;42.40;100572.03;5043039;28;19921;-82
2023/03/23 00:37:05;;;;;;;;;;;;;;;17.93;42.51;100577.22;5043671;28;19959;-82
2023/03/23 00:39:31;;;;;;;;;;;;;;;17.89;42.40;100578.16;5044334;28;19917;-82
2023/03/23 00:42:00;;;;;;;;;;;;;;;17.83;42.39;100573.94;5043770;28;19924;-82
2023/03/23 00:44:30;;;;;;;;;;;;;;;17.76;42.67;100561.56;5042138;28;20004;-82
2023/03/23 00:46:56;;;;;;;;;;;;;;;17.74;42.75;100557.56;5042903;28;19928;-82
2023/03/23 00:49:25;;;;;;;;;;;;;;;17.72;42.64;100559.75;5044027;28;20370;-82
2023/03/23 00:51:53;;;;;;;;;;;;;;;17.67;42.59;100559.84;5043831;28;19956;-82
2023/03/23 00:54:20;;;;;;;;;;;;;;;17.62;42.62;100555.31;5038631;28;19925;-82
2023/03/23 00:56:45;;;;;;;;;;;;;;;17.59;42.73;100552.38;5041347;28;19952;-83
2023/03/23 00:59:10;;;;;;;;;;;;;;;17.56;42.53;100547.56;5038956;28;19924;-82
2023/03/23 01:01:36;;;;;;;;;;;;;;;17.50;42.74;100536.84;5037266;28;19917;-83
2023/03/23 01:04:03;;;;;;;;;;;;;;;17.42;42.76;100529.41;5022206;28;19988;-82
2023/03/23 01:06:30;;;;;;;;;;;;;;;17.37;42.95;100523.28;5041771;28;19949;-82
2023/03/23 01:08:56;;;;;;;;;;;;;;;17.35;43.01;100523.56;5039305;28;20007;-82
2023/03/23 01:11:22;;;;;;;;;;;;;;;17.35;42.91;100520.88;5037853;28;19979;-83
2023/03/23 01:13:47;;;;;;;;;;;;;;;17.33;43.02;100514.94;5034619;28;19925;-82
2023/03/23 01:16:13;;;;;;;;;;;;;;;17.34;42.91;100510.34;5034435;28;19921;-83
2023/03/23 01:18:39;;;;;;;;;;;;;;;17.35;42.84;100510.03;5029441;28;19913;-82
2023/03/23 01:21:12;;;;;;;;;;;;;;;17.35;42.73;100509.22;5029683;28;19921;-82
2023/03/23 01:23:37;;;;;;;;;;;;;;;17.33;42.66;100493.28;5032291;28;20375;-82
2023/03/23 01:26:07;;;;;;;;;;;;;;;17.32;42.67;100496.28;5034341;28;19956;-82
2023/03/23 01:28:33;;;;;;;;;;;;;;;17.30;42.77;100496.59;5037091;28;20008;-82
2023/03/23 01:31:00;;;;;;;;;;;;;;;17.30;42.87;100501.22;5030544;28;19925;-83
2023/03/23 01:33:25;;;;;;;;;;;;;;;17.27;42.60;100513.44;5041483;28;20016;-82
2023/03/23 01:35:51;;;;;;;;;;;;;;;17.26;42.78;100508.31;5039225;28;19917;-82
2023/03/23 01:38:16;;;;;;;;;;;;;;;17.24;42.57;100510.53;5041793;28;20393;-82
2023/03/23 01:40:42;;;;;;;;;;;;;;;17.24;42.75;100502.41;5040328;28;19917;-82
2023/03/23 01:43:13;;;;;;;;;;;;;;;17.20;42.51;100494.84;5037804;28;19921;-82
2023/03/23 01:45:38;;;;;;;;;;;;;;;17.15;42.71;100503.09;5041756;28;19917;-82
2023/03/23 01:48:07;;;;;;;;;;;;;;;17.09;42.81;100493.44;5041128;28;19947;-82
2023/03/23 01:50:36;;;;;;;;;;;;;;;17.03;42.81;100494.63;5022534;28;20000;-83
2023/03/23 01:53:02;;;;;;;;;;;;;;;16.97;42.90;100485.00;5039919;28;19939;-82
2023/03/23 01:55:28;;;;;;;;;;;;;;;16.92;43.13;100487.78;5023264;28;20004;-82
2023/03/23 01:57:55;;;;;;;;;;;;;;;16.92;43.19;100487.78;5038977;28;20176;-82
2023/03/23 02:00:21;;;;;;;;;;;;;;;16.92;42.98;100490.50;5041858;28;19924;-82
2023/03/23 02:02:48;;;;;;;;;;;;;;;16.92;43.00;100485.09;5041165;28;19925;-82
2023/03/23 02:05:17;;;;;;;;;;;;;;;16.91;43.02;100494.31;5041707;28;19917;-83
2023/03/23 02:07:43;;;;;;;;;;;;;;;16.90;42.89;100487.28;5040494;28;19928;-82
2023/03/23 02:10:09;;;;;;;;;;;;;;;16.90;42.95;100473.75;5041231;28;19956;-83
2023/03/23 02:12:34;;;;;;;;;;;;;;;16.89;42.95;100466.75;5041030;28;19940;-82
2023/03/23 02:15:00;;;;;;;;;;;;;;;16.89;43.04;100472.16;5037810;28;19928;-82
2023/03/23 02:17:34;;;;;;;;;;;;;;;16.88;43.11;100474.06;5041448;28;19944;-82
2023/03/23 02:20:13;;;;;;;;;;;;;;;16.89;43.05;100483.78;5039551;28;19925;-82
2023/03/23 02:22:50;;;;;;;;;;;;;;;16.86;43.02;100468.13;5040433;28;20172;-82
2023/03/23 02:25:23;;;;;;;;;;;;;;;16.86;43.13;100470.81;5043178;28;19917;-83
2023/03/23 02:28:06;;;;;;;;;;;;;;;16.89;43.17;100477.56;5040409;28;19928;-82
2023/03/23 02:30:37;;;;;;;;;;;;;;;16.92;43.09;100463.44;5043579;28;19943;-83
2023/03/23 02:33:15;;;;;;;;;;;;;;;16.93;42.97;100459.63;5044507;28;19925;-82
2023/03/23 02:35:55;;;;;;;;;;;;;;;16.96;42.91;100456.31;5045636;28;19920;-82
2023/03/23 02:38:26;;;;;;;;;;;;;;;16.95;43.01;100449.31;5042246;28;20054;-82
2023/03/23 02:40:53;;;;;;;;;;;;;;;16.96;43.02;100450.91;5042831;28;19917;-82
2023/03/23 02:43:21;;;;;;;;;;;;;;;16.99;43.16;100438.69;5041394;28;19917;-82
2023/03/23 02:45:47;;;;;;;;;;;;;;;17.00;43.09;100435.69;5042203;28;19964;-82
2023/03/23 02:48:15;;;;;;;;;;;;;;;17.08;43.00;100440.41;5047567;28;19945;-82
2023/03/23 02:50:42;;;;;;;;;;;;;;;17.10;43.00;100434.69;5045252;28;19972;-82
2023/03/23 02:53:09;;;;;;;;;;;;;;;17.14;42.97;100435.69;5046928;28;19979;-83
2023/03/23 02:55:40;;;;;;;;;;;;;;;17.15;43.02;100429.19;5046731;28;19921;-82
2023/03/23 02:58:05;;;;;;;;;;;;;;;17.16;43.07;100438.91;5044922;28;19964;-82
2023/03/23 03:00:31;;;;;;;;;;;;;;;17.15;43.02;100426.47;5046277;28;20321;-82
2023/03/23 03:02:57;;;;;;;;;;;;;;;17.16;43.11;100423.47;5027010;28;19917;-83
2023/03/23 03:05:28;;;;;;;;;;;;;;;17.21;42.96;100436.91;5045299;28;19924;-82
2023/03/23 03:08:00;;;;;;;;;;;;;;;17.21;43.10;100430.69;5045079;28;20074;-82
2023/03/23 03:10:29;;;;;;;;;;;;;;;17.22;42.86;100437.69;5045185;28;19980;-83
2023/03/23 03:12:57;;;;;;;;;;;;;;;17.24;42.94;100434.72;5043367;28;19951;-82
2023/03/23 03:15:26;;;;;;;;;;;;;;;17.20;43.24;100435.31;5041903;28;19918;-83
2023/03/23 03:18:03;;;;;;;;;;;;;;;17.24;43.13;100432.03;5042313;28;19940;-82
2023/03/23 03:20:30;;;;;;;;;;;;;;;17.26;43.04;100432.53;5044922;28;19917;-82
2023/03/23 03:22:56;;;;;;;;;;;;;;;17.26;43.14;100432.53;5044697;28;19920;-82
2023/03/23 03:25:23;;;;;;;;;;;;;;;17.25;43.03;100439.03;5043619;28;19917;-82
2023/03/23 03:27:52;;;;;;;;;;;;;;;17.24;42.96;100440.13;5043911;28;19932;-82
2023/03/23 03:30:20;;;;;;;;;;;;;;;17.24;43.08;100449.06;5044962;28;20092;-82
2023/03/23 03:32:50;;;;;;;;;;;;;;;17.27;43.08;100463.91;5045208;28;19985;-83
2023/03/23 03:35:16;;;;;;;;;;;;;;;17.32;43.05;100458.38;5045034;28;19924;-82
2023/03/23 03:37:42;;;;;;;;;;;;;;;17.35;43.02;100455.06;5045404;28;19917;-82
2023/03/23 03:40:12;;;;;;;;;;;;;;;17.36;43.09;100467.50;5044409;28;19944;-82
2023/03/23 03:42:38;;;;;;;;;;;;;;;17.38;43.20;100463.41;5045687;28;19939;-82
2023/03/23 03:45:05;;;;;;;;;;;;;;;17.43;42.89;100463.31;5045882;28;19921;-83
2023/03/23 03:47:30;;;;;;;;;;;;;;;17.45;42.90;100460.31;5045597;28;19917;-83
2023/03/23 03:49:59;;;;;;;;;;;;;;;17.49;43.12;100450.47;5045470;28;20011;-82
2023/03/23 03:52:24;;;;;;;;;;;;;;;17.52;42.91;100452.56;5046497;28;19917;-82
2023/03/23 03:54:50;;;;;;;;;;;;;;;17.55;43.06;100457.38;5045642;28;19917;-82
2023/03/23 03:57:17;;;;;;;;;;;;;;;17.57;42.92;100460.59;5046051;28;19932;-82
2023/03/23 03:59:43;;;;;;;;;;;;;;;17.57;42.92;100460.59;5045872;28;19917;-82
2023/03/23 04:02:09;;;;;;;;;;;;;;;17.59;43.09;100463.78;5044208;28;19941;-82
2023/03/23 04:04:35;;;;;;;;;;;;;;;17.62;43.09;100471.34;5047312;28;19932;-83
2023/03/23 04:07:02;;;;;;;;;;;;;;;17.60;43.09;100467.34;5027218;28;19936;-86
2023/03/23 04:09:28;;;;;;;;;;;;;;;17.61;42.95;100471.66;5026838;28;20291;-87
2023/03/23 04:11:53;;;;;;;;;;;;;;;17.62;43.02;100470.53;5027943;28;19928;-85
2023/03/23 04:14:19;;;;;;;;;;;;;;;17.56;42.90;100472.53;5026654;28;19921;-85
2023/03/23 04:16:44;;;;;;;;;;;;;;;17.50;43.01;100469.13;5026641;28;19917;-86
2023/03/23 04:19:10;;;;;;;;;;;;;;;17.44;43.25;100466.81;5023802;28;19976;-85
2023/03/23 04:21:35;;;;;;;;;;;;;;;17.40;43.01;100452.25;5025976;28;19934;-85
2023/03/23 04:24:00;;;;;;;;;;;;;;;17.33;43.34;100449.97;5025688;28;20008;-85
2023/03/23 04:26:28;;;;;;;;;;;;;;;17.34;43.19;100461.59;5026801;28;19925;-85
2023/03/23 04:28:54;;;;;;;;;;;;;;;17.30;43.46;100455.19;5023578;28;19925;-86
2023/03/23 04:31:20;;;;;;;;;;;;;;;17.26;43.53;100454.97;5008570;28;19928;-85
2023/03/23 04:33:46;;;;;;;;;;;;;;;17.25;43.67;100453.38;5026636;28;19925;-86
2023/03/23 04:36:15;;;;;;;;;;;;;;;17.24;43.39;100445.56;5027010;28;20272;-85
2023/03/23 04:38:41;;;;;;;;;;;;;;;17.21;43.63;100436.09;5025484;28;19970;-86
2023/03/23 04:41:06;;;;;;;;;;;;;;;17.17;43.96;100429.69;5026478;28;19925;-86
2023/03/23 04:43:32;;;;;;;;;;;;;;;17.15;44.16;100434.59;5026242;28;20545;-86
2023/03/23 04:45:59;;;;;;;;;;;;;;;17.13;44.06;100437.63;5026647;28;19923;-86
2023/03/23 04:48:26;;;;;;;;;;;;;;;17.14;44.42;100441.13;5026930;28;19971;-85
2023/03/23 04:50:52;;;;;;;;;;;;;;;17.15;44.41;100434.59;5025939;28;19917;-85
2023/03/23 04:53:18;;;;;;;;;;;;;;;17.15;44.38;100429.19;5026327;28;20082;-86
2023/03/23 04:55:43;;;;;;;;;;;;;;;17.15;44.51;100434.59;5025224;28;20271;-86
2023/03/23 04:58:08;;;;;;;;;;;;;;;17.16;44.76;100436.19;5026814;28;19970;-86
2023/03/23 05:00:34;;;;;;;;;;;;;;;17.15;44.99;100442.72;5027763;28;19967;-86
2023/03/23 05:03:00;;;;;;;;;;;;;;;17.13;44.91;100453.84;5025525;28;20401;-86
2023/03/23 05:05:27;;;;;;;;;;;;;;;17.14;44.90;100447.34;5027618;28;19925;-87
2023/03/23 05:07:52;;;;;;;;;;;;;;;17.15;44.95;100457.06;5027460;28;20386;-87
2023/03/23 05:10:18;;;;;;;;;;;;;;;17.14;44.99;100452.75;5027762;28;19917;-86
2023/03/23 05:12:43;;;;;;;;;;;;;;;17.17;44.96;100462.19;5024827;28;19970;-87
2023/03/23 05:15:10;;;;;;;;;;;;;;;17.16;45.21;100460.56;5028747;28;19917;-87
2023/03/23 05:17:35;;;;;;;;;;;;;;;17.15;45.14;100465.19;5027058;28;19925;-87
2023/03/23 05:20:04;;;;;;;;;;;;;;;17.10;45.16;100464.47;5028408;28;19940;-87
2023/03/23 05:22:32;;;;;;;;;;;;;;;17.06;45.41;100458.88;5027982;28;19917;-87
2023/03/23 05:24:58;;;;;;;;;;;;;;;17.05;44.96;100459.94;5029264;28;20339;-87
2023/03/23 05:27:23;;;;;;;;;;;;;;;17.01;44.99;100452.72;5028377;28;19917;-87
2023/03/23 05:29:48;;;;;;;;;;;;;;;16.93;45.12;100456.94;5027924;28;20429;-87
2023/03/23 05:32:14;;;;;;;;;;;;;;;16.88;45.57;100454.31;5029207;28;19917;-87
2023/03/23 05:34:40;;;;;;;;;;;;;;;16.82;45.74;100453.56;5028164;28;19921;-87
2023/03/23 05:37:08;;;;;;;;;;;;;;;16.82;45.65;100450.06;5028823;28;19925;-88
2023/03/23 05:39:34;;;;;;;;;;;;;;;16.80;45.85;100452.28;5028729;28;19996;-87
2023/03/23 05:41:59;;;;;;;;;;;;;;;16.78;45.93;100451.78;5027938;28;20116;-88
2023/03/23 05:44:24;;;;;;;;;;;;;;;16.76;46.04;100452.06;5026287;28;19917;-88
2023/03/23 05:46:50;;;;;;;;;;;;;;;16.78;45.85;100446.34;5027835;28;20307;-88
2023/03/23 05:49:16;;;;;;;;;;;;;;;16.77;46.36;100452.88;5027435;28;19917;-87
2023/03/23 05:51:41;;;;;;;;;;;;;;;16.83;46.43;100446.25;5028225;28;19921;-87
2023/03/23 05:54:07;;;;;;;;;;;;;;;16.86;46.69;100443.75;5025271;28;20366;-88
2023/03/23 05:56:32;;;;;;;;;;;;;;;16.90;46.43;100441.28;5028334;28;19921;-87
2023/03/23 05:58:58;;;;;;;;;;;;;;;16.91;46.35;100451.00;5026857;28;20016;-88
2023/03/23 06:01:24;;;;;;;;;;;;;;;16.92;46.24;100449.91;5027293;28;19960;-87
2023/03/23 06:03:53;;;;;;;;;;;;;;;16.88;46.41;100454.31;5025547;28;19918;-88
2023/03/23 06:06:22;;;;;;;;;;;;;;;16.85;46.43;100449.47;5026000;28;19917;-87
2023/03/23 06:08:50;;;;;;;;;;;;;;;16.79;47.01;100442.56;5026491;28;19980;-88
2023/03/23 06:11:15;;;;;;;;;;;;;;;16.76;47.08;100443.94;5023910;28;19968;-88
2023/03/23 06:13:41;;;;;;;;;;;;;;;16.80;46.89;100453.06;5025384;28;19964;-88
2023/03/23 06:16:07;;;;;;;;;;;;;;;16.81;46.87;100451.16;5025832;28;20333;-88
2023/03/23 06:18:33;;;;;;;;;;;;;;;16.77;47.25;100450.97;5025220;28;19928;-88
2023/03/23 06:20:59;;;;;;;;;;;;;;;16.76;46.94;100448.56;5024164;28;20232;-87
2023/03/23 06:23:28;;;;;;;;;;;;;;;16.74;47.40;100456.16;5026290;28;20099;-87
2023/03/23 06:25:55;;;;;;;;;;;;;;;16.74;47.55;100454.28;5025064;28;19952;-87
2023/03/23 06:28:20;;;;;;;;;;;;;;;16.74;47.76;100456.16;5024379;28;19917;-87
2023/03/23 06:30:45;;;;;;;;;;;;;;;16.76;47.67;100451.25;5027349;28;19921;-88
2023/03/23 06:33:15;;;;;;;;;;;;;;;16.78;47.71;100449.88;5010213;28;19921;-87
2023/03/23 06:35:40;;;;;;;;;;;;;;;16.76;47.57;100449.38;5026912;28;19917;-87
2023/03/23 06:38:06;;;;;;;;;;;;;;;16.75;47.74;100450.47;5027650;28;20397;-88
2023/03/23 06:40:32;;;;;;;;;;;;;;;16.74;47.87;100456.97;5025632;28;19917;-87
2023/03/23 06:42:58;;;;;;;;;;;;;;;16.74;48.16;100470.50;5028189;28;20452;-88
2023/03/23 06:45:24;;;;;;;;;;;;;;;16.73;47.95;100463.47;5028123;28;19953;-88
2023/03/23 06:47:49;;;;;;;;;;;;;;;16.72;48.12;100466.50;5026273;28;19921;-88
2023/03/23 06:50:16;;;;;;;;;;;;;;;16.72;48.14;100467.28;5027003;28;20413;-88
2023/03/23 06:52:45;;;;;;;;;;;;;;;16.74;48.18;100472.41;5028269;28;19961;-88
2023/03/23 06:55:11;;;;;;;;;;;;;;;16.78;48.11;100471.50;5026474;28;19924;-88
2023/03/23 06:57:36;;;;;;;;;;;;;;;16.76;48.43;100472.91;5027212;28;20501;-88
2023/03/23 07:00:04;;;;;;;;;;;;;;;16.79;48.23;100473.13;5026553;28;20014;-88
2023/03/23 07:02:30;;;;;;;;;;;;;;;16.80;48.22;100469.31;5025244;28;19921;-88
2023/03/23 07:04:56;;;;;;;;;;;;;;;16.82;48.52;100460.91;5024657;28;19928;-88
2023/03/23 07:07:22;;;;;;;;;;;;;;;16.83;48.40;100457.88;5024188;28;20298;-88
2023/03/23 07:09:47;;;;;;;;;;;;;;;16.78;48.58;100462.59;5023729;28;19925;-87
2023/03/23 07:12:14;;;;;;;;;;;;;;;16.76;48.64;100457.47;5025469;28;19952;-88
2023/03/23 07:14:39;;;;;;;;;;;;;;;16.70;49.14;100452.47;5008626;28;20010;-89
2023/03/23 07:17:05;;;;;;;;;;;;;;;16.70;48.93;100450.56;5026425;28;20027;-87
2023/03/23 07:19:31;;;;;;;;;;;;;;;16.68;49.15;100458.13;5028797;28;19917;-87
2023/03/23 07:21:57;;;;;;;;;;;;;;;16.70;49.18;100468.69;5028143;28;19917;-88
2023/03/23 07:24:26;;;;;;;;;;;;;;;16.71;49.23;100465.69;5028926;28;19917;-88
2023/03/23 07:26:51;;;;;;;;;;;;;;;16.71;49.29;100459.47;5029405;28;20018;-88
2023/03/23 07:29:17;;;;;;;;;;;;;;;16.68;49.32;100468.16;5025188;28;19917;-88
2023/03/23 07:31:42;;;;;;;;;;;;;;;16.66;49.57;100464.91;5028074;28;20015;-88
2023/03/23 07:34:08;;;;;;;;;;;;;;;16.72;49.60;100472.69;5027829;28;19975;-88
2023/03/23 07:36:37;;;;;;;;;;;;;;;16.72;49.47;100464.59;5026641;28;20164;-88
2023/03/23 07:39:05;;;;;;;;;;;;;;;16.76;49.58;100467.50;5028902;28;19917;-88
2023/03/23 07:41:33;;;;;;;;;;;;;;;16.73;49.69;100470.81;5028212;28;20137;-88
2023/03/23 07:43:58;;;;;;;;;;;;;;;16.79;49.63;100466.91;5028290;28;20279;-88
2023/03/23 07:46:24;;;;;;;;;;;;;;;16.72;49.97;100459.19;5025170;28;19929;-89
2023/03/23 07:48:49;;;;;;;;;;;;;;;16.73;50.05;100463.47;5024837;28;19932;-90
2023/03/23 07:51:16;;;;;;;;;;;;;;;16.69;50.04;100462.44;5031279;28;19917;-90
2023/03/23 07:53:44;;;;;;;;;;;;;;;16.71;50.25;100470.28;5011238;28;19921;-89
2023/03/23 07:56:14;;;;;;;;;;;;;;;16.73;50.28;100466.19;5027238;28;20310;-89
2023/03/23 07:58:40;;;;;;;;;;;;;;;16.71;50.41;100478.41;5028427;28;19948;-89
2023/03/23 08:01:07;;;;;;;;;;;;;;;16.76;50.26;100472.91;5029066;28;20039;-89
2023/03/23 08:03:33;;;;;;;;;;;;;;;16.78;50.10;100474.22;5027330;28;19924;-88
2023/03/23 08:05:59;;;;;;;;;;;;;;;16.77;50.48;100464.50;5026476;28;19917;-89
2023/03/23 08:08:25;;;;;;;;;;;;;;;16.80;51.10;100463.09;5027828;28;20035;-88
2023/03/23 08:10:50;;;;;;;;;;;;;;;16.82;50.70;100450.06;5023520;28;19998;-88
2023/03/23 08:13:16;;;;;;;;;;;;;;;16.80;50.78;100446.84;5028105;28;19921;-88
2023/03/23 08:15:41;;;;;;;;;;;;;;;16.80;51.09;100442.25;5027238;28;19932;-88
2023/03/23 08:18:07;;;;;;;;;;;;;;;16.85;50.74;100438.66;5022014;28;20290;-88
2023/03/23 08:20:33;;;;;;;;;;;;;;;16.89;50.95;100445.09;5022523;28;20422;-88
2023/03/23 08:22:59;;;;;;;;;;;;;;;16.85;51.00;100431.34;5019253;28;19928;-87
2023/03/23 08:25:25;;;;;;;;;;;;;;;16.83;51.24;100422.72;5019262;28;19967;-87
2023/03/23 08:27:51;;;;;;;;;;;;;;;16.84;51.63;100420.81;5023472;28;19921;-89
2023/03/23 08:30:22;;;;;;;;;;;;;;;16.77;51.81;100415.00;5008712;28;19997;-86
2023/03/23 08:32:48;;;;;;;;;;;;;;;16.73;52.32;100406.66;5016685;28;20345;-87
2023/03/23 08:35:14;;;;;;;;;;;;;;;16.72;52.10;100421.31;5019773;28;19922;-89
2023/03/23 08:37:41;;;;;;;;;;;;;;;16.78;52.12;100420.09;5024357;28;20169;-86
2023/03/23 08:40:09;;;;;;;;;;;;;;;16.71;52.45;100418.91;5025875;28;19925;-87
2023/03/23 08:42:44;;;;;;;;;;;;;;;16.69;52.96;100411.03;5022869;28;19917;-86
2023/03/23 08:45:15;;;;;;;;;;;;;;;16.73;52.73;100422.09;5025709;28;19924;-87
2023/03/23 08:47:41;;;;;;;;;;;;;;;16.79;52.50;100423.63;5022560;28;20032;-87
2023/03/23 08:50:08;;;;;;;;;;;;;;;16.78;52.55;100441.75;5022779;28;20422;-89
2023/03/23 08:52:34;;;;;;;;;;;;;;;16.79;52.81;100447.97;5024100;28;19921;-87
2023/03/23 08:54:59;;;;;;;;;;;;;;;16.82;52.79;100439.25;5024301;28;19925;-87
2023/03/23 08:57:25;;;;;;;;;;;;;;;16.89;52.82;100454.00;5008289;28;19975;-87
2023/03/23 08:59:57;;;;;;;;;;;;;;;16.92;52.85;100460.72;5022531;28;20371;-89
2023/03/23 09:02:25;;;;;;;;;;;;;;;17.07;52.51;100456.97;5026873;28;20400;-89
2023/03/23 09:04:52;;;;;;;;;;;;;;;17.13;52.41;100451.16;5021390;28;19928;-88
2023/03/23 09:07:18;;;;;;;;;;;;;;;17.19;52.55;100458.06;5014598;28;19932;-87
2023/03/23 09:09:43;;;;;;;;;;;;;;;17.30;52.44;100463.31;5022736;28;20383;-88
2023/03/23 09:12:09;;;;;;;;;;;;;;;17.30;52.33;100460.59;5025106;28;19972;-88
2023/03/23 09:14:38;;;;;;;;;;;;;;;17.43;52.10;100459.81;5021675;28;19925;-86
2023/03/23 09:17:04;;;;;;;;;;;;;;;17.41;52.49;100470.09;5023419;28;19928;-87
2023/03/23 09:19:30;;;;;;;;;;;;;;;17.47;52.15;100477.06;5024757;28;19929;-87
2023/03/23 09:21:55;;;;;;;;;;;;;;;17.55;52.39;100489.09;5022080;28;20629;-88
2023/03/23 09:24:20;;;;;;;;;;;;;;;17.65;51.98;100484.28;5025048;28;19924;-89
2023/03/23 09:26:46;;;;;;;;;;;;;;;17.66;52.11;100490.50;5022195;28;19921;-89
2023/03/23 09:29:12;;;;;;;;;;;;;;;17.71;51.84;100483.09;5025441;28;19923;-89
2023/03/23 09:31:39;;;;;;;;;;;;;;;17.77;51.94;100475.66;5025357;28;20457;-87
2023/03/23 09:34:06;;;;;;;;;;;;;;;17.77;51.92;100487.31;5024687;28;19932;-89
2023/03/23 09:36:31;;;;;;;;;;;;;;;17.78;51.81;100478.09;5020270;28;19917;-89
2023/03/23 09:38:58;;;;;;;;;;;;;;;17.80;51.96;100480.50;5023414;28;19917;-89
2023/03/23 09:41:36;;;;;;;;;;;;;;;17.89;51.56;100486.00;5023666;28;20006;-88
2023/03/23 09:44:20;;;;;;;;;;;;;;;17.90;51.65;100477.56;5022589;28;19947;-88
2023/03/23 09:46:51;;;;;;;;;;;;;;;17.92;51.75;100463.69;5022517;28;19921;-89
2023/03/23 09:49:24;;;;;;;;;;;;;;;18.05;51.82;100465.59;5019662;28;20195;-88
2023/03/23 09:51:58;;;;;;;;;;;;;;;18.09;51.46;100456.53;5021644;28;19986;-87
2023/03/23 09:54:27;;;;;;;;;;;;;;;18.21;51.26;100469.56;5024722;28;19972;-86
2023/03/23 09:56:53;;;;;;;;;;;;;;;18.22;51.32;100481.22;5023089;28;19921;-87
2023/03/23 09:59:21;;;;;;;;;;;;;;;18.27;51.25;100483.81;5024765;28;19979;-87
2023/03/23 10:01:49;;;;;;;;;;;;;;;18.39;51.20;100486.81;5021344;28;19979;-88
2023/03/23 10:04:15;;;;;;;;;;;;;;;18.50;51.37;100466.47;5020134;28;19952;-87
2023/03/23 10:06:40;;;;;;;;;;;;;;;18.58;51.03;100476.56;5024362;28;19976;-88
2023/03/23 10:09:06;;;;;;;;;;;;;;;18.67;51.19;100463.09;5025075;28;19921;-87
2023/03/23 10:11:47;;;;;;;;;;;;;;;18.84;50.72;100470.56;5005299;28;19991;-87
2023/03/23 10:14:32;;;;;;;;;;;;;;;18.94;50.63;100473.03;5023735;28;20010;-86
2023/03/23 10:17:03;;;;;;;;;;;;;;;19.06;50.31;100473.25;5020455;28;19921;-86
2023/03/23 10:19:42;;;;;;;;;;;;;;;19.13;49.94;100476.31;5016693;28;19966;-90
2023/03/23 10:22:11;;;;;;;;;;;;;;;19.23;50.01;100469.84;5022173;28;20370;-87
2023/03/23 10:24:46;;;;;;;;;;;;;;;19.38;49.43;100485.69;5020682;28;19920;-87
2023/03/23 10:27:30;;;;;;;;;;;;;;;19.42;49.31;100486.69;5005667;28;19916;-87
2023/03/23 10:30:00;;;;;;;;;;;;;;;19.48;49.49;100479.19;5018868;28;20024;-87
2023/03/23 10:32:39;;;;;;;;;;;;;;;19.58;49.48;100476.25;5014523;28;20305;-86
2023/03/23 10:35:06;;;;;;;;;;;;;;;19.78;49.33;100472.94;5020166;28;19965;-86
2023/03/23 10:37:41;;;;;;;;;;;;;;;19.85;49.12;100462.38;5018686;28;19952;-87
2023/03/23 10:40:14;;;;;;;;;;;;;;;20.00;48.81;100463.06;5022782;28;19917;-87
2023/03/23 10:42:40;;;;;;;;;;;;;;;20.04;48.47;100464.03;5017095;28;19920;-88
2023/03/23 10:48:19;;;;;;;;;;;;;;;20.03;47.99;100449.63;5019995;28;19924;-86
2023/03/23 10:50:48;;;;;;;;;;;;;;;20.03;48.35;100451.53;5019875;28;19929;-88
2023/03/23 10:53:19;;;;;;;;;;;;;;;20.06;47.99;100434.59;5028160;28;19921;-86
2023/03/23 10:55:46;;;;;;;;;;;;;;;20.03;48.02;100435.22;5028668;28;19913;-87
2023/03/23 10:58:22;;;;;;;;;;;;;;;20.14;48.21;100421.00;5028053;28;20295;-87
2023/03/23 11:00:48;;;;;;;;;;;;;;;20.33;47.90;100414.44;5027780;28;19917;-86
2023/03/23 11:03:15;;;;;;;;;;;;;;;20.44;47.46;100419.25;5028600;28;19923;-88
2023/03/23 11:05:43;;;;;;;;;;;;;;;20.61;47.28;100423.06;5022291;28;19924;-87
2023/03/23 11:08:16;;;;;;;;;;;;;;;20.69;46.86;100425.78;5026882;28;19972;-88
2023/03/23 11:10:48;;;;;;;;;;;;;;;20.76;46.65;100428.00;5024130;28;19921;-86
2023/03/23 11:13:15;;;;;;;;;;;;;;;20.78;46.27;100434.72;5009192;28;20120;-87
2023/03/23 11:15:41;;;;;;;;;;;;;;;20.88;45.72;100438.25;5023552;28;19917;-86
2023/03/23 11:18:13;;;;;;;;;;;;;;;20.89;45.06;100451.53;5021050;28;20019;-87
2023/03/23 11:20:42;;;;;;;;;;;;;;;20.87;44.81;100452.97;5024691;28;19927;-86
2023/03/23 11:23:29;;;;;;;;;;;;;;;20.92;44.77;100442.72;5028749;28;20364;-88
2023/03/23 11:25:57;;;;;;;;;;;;;;;20.85;45.23;100447.06;5008781;28;19928;-87
2023/03/23 11:28:30;;;;;;;;;;;;;;;20.98;45.23;100440.59;5024461;28;19917;-86
2023/03/23 11:30:56;;;;;;;;;;;;;;;21.04;44.81;100448.28;5025718;28;19925;-86
2023/03/23 11:33:24;;;;;;;;;;;;;;;21.06;44.44;100450.69;5025508;28;19929;-88
2023/03/23 11:35:52;;;;;;;;;;;;;;;20.97;43.84;100439.00;5023341;28;19932;-87
2023/03/23 11:38:21;;;;;;;;;;;;;;;20.84;44.53;100448.97;5026817;28;20278;-86
2023/03/23 11:40:50;;;;;;;;;;;;;;;20.90;44.63;100453.13;5027069;28;19932;-87
2023/03/23 11:43:24;;;;;;;;;;;;;;;20.83;44.90;100452.03;5027874;28;19925;-86
2023/03/23 11:46:19;;;;;;;;;;;;;;;20.84;45.28;100451.72;5027450;28;20085;-86
2023/03/23 11:48:45;;;;;;;;;;;;;;;20.93;45.19;100451.66;4936139;28;19930;-86
2023/03/23 11:51:12;;;;;;;;;;;;;;;21.02;44.18;100464.16;5027109;28;19921;-86
2023/03/23 11:53:38;;;;;;;;;;;;;;;20.92;44.27;100458.25;5026753;28;19925;-87
2023/03/23 11:56:08;;;;;;;;;;;;;;;20.93;44.32;100465.28;5026770;28;19921;-87
2023/03/23 11:58:33;;;;;;;;;;;;;;;21.02;44.00;100468.81;5021853;28;20383;-88
2023/03/23 12:01:04;;;;;;;;;;;;;;;21.06;44.09;100464.31;5027537;28;20046;-86
2023/03/23 12:03:54;;;;;;;;;;;;;;;21.08;43.28;100470.22;5026819;28;19956;-87
2023/03/23 12:06:40;;;;;;;;;;;;;;;21.11;42.87;100467.66;5023433;28;19984;-86
2023/03/23 12:09:28;;;;;;;;;;;;;;;21.09;43.15;100471.81;5026004;28;19931;-86
2023/03/23 12:11:56;;;;;;;;;;;;;;;21.15;42.95;100467.78;5016220;28;19927;-87
2023/03/23 12:14:24;;;;;;;;;;;;;;;21.21;42.99;100457.53;5027375;28;19988;-86
2023/03/23 12:17:08;;;;;;;;;;;;;;;21.25;43.13;100466.69;5026037;28;19925;-87
2023/03/23 12:19:41;;;;;;;;;;;;;;;21.38;42.79;100474.66;5024269;28;19917;-87
2023/03/23 12:22:06;;;;;;;;;;;;;;;21.33;42.42;100469.34;5026877;28;19967;-86
2023/03/23 12:24:57;;;;;;;;;;;;;;;21.36;42.34;100459.72;5026851;28;19921;-85
2023/03/23 12:27:36;;;;;;;;;;;;;;;21.40;42.08;100461.50;5027529;28;19917;-86
2023/03/23 12:30:10;;;;;;;;;;;;;;;21.50;41.70;100464.97;5007981;28;20625;-86
2023/03/23 12:32:38;;;;;;;;;;;;;;;21.51;41.87;100461.09;5026179;28;20083;-87
2023/03/23 12:35:24;;;;;;;;;;;;;;;21.62;41.80;100452.22;5026286;28;20212;-86
2023/03/23 12:38:10;;;;;;;;;;;;;;;21.71;41.63;100465.81;5024381;28;20024;-88
2023/03/23 12:40:42;;;;;;;;;;;;;;;21.81;41.50;100459.19;5022882;28;20031;-88
2023/03/23 12:43:07;;;;;;;;;;;;;;;21.83;41.27;100459.66;5026637;28;19924;-86